createdAt,value
2018-04-22T00:00:15.148Z,10.05
2018-04-22T00:01:14.880Z,10.11
2018-04-22T00:02:14.873Z,10.03
2018-04-22T00:03:15.133Z,9.95
2018-04-22T00:04:14.852Z,10.02
2018-04-22T00:05:14.835Z,10.03
2018-04-22T00:06:14.840Z,10.1
2018-04-22T00:07:14.566Z,10.1
2018-04-22T00:08:14.813Z,10.05
2018-04-22T00:09:15.061Z,10
2018-04-22T00:10:15.071Z,10.08
2018-04-22T00:11:14.529Z,10.03
2018-04-22T00:12:14.541Z,9.99
2018-04-22T00:13:15.028Z,10.05
2018-04-22T00:14:14.757Z,10.03
2018-04-22T00:15:14.752Z,9.93
2018-04-22T00:16:14.741Z,9.93
2018-04-22T00:17:14.472Z,9.89
2018-04-22T00:18:14.725Z,9.96
2018-04-22T00:19:14.969Z,9.93
2018-04-22T00:20:14.705Z,9.9
2018-04-22T00:21:14.953Z,9.93
2018-04-22T00:22:14.948Z,9.96
2018-04-22T00:23:14.680Z,9.92
2018-04-22T00:24:14.926Z,9.92
2018-04-22T00:25:14.915Z,9.77
2018-04-22T00:26:14.912Z,9.85
2018-04-22T00:27:14.903Z,9.78
2018-04-22T00:28:14.889Z,9.77
2018-04-22T00:29:14.880Z,9.82
2018-04-22T00:30:14.875Z,9.84
2018-04-22T00:31:14.599Z,9.84
2018-04-22T00:32:14.863Z,9.89
2018-04-22T00:33:14.841Z,9.89
2018-04-22T00:34:14.573Z,9.81
2018-04-22T00:35:14.830Z,9.96
2018-04-22T00:36:14.829Z,9.96
2018-04-22T00:37:14.549Z,9.92
2018-04-22T00:38:14.536Z,9.92
2018-04-22T00:39:14.788Z,9.99
2018-04-22T00:40:14.518Z,9.93
2018-04-22T00:41:14.251Z,9.93
2018-04-22T00:42:14.240Z,9.9
2018-04-22T00:43:14.255Z,9.95
2018-04-22T00:44:14.744Z,9.92
2018-04-22T00:45:14.730Z,9.89
2018-04-22T00:46:14.208Z,9.92
2018-04-22T00:47:14.710Z,9.89
2018-04-22T00:48:14.724Z,9.92
2018-04-22T00:49:14.695Z,9.89
2018-04-22T00:50:14.689Z,9.77
2018-04-22T00:51:14.675Z,9.78
2018-04-22T00:52:14.148Z,9.88
2018-04-22T00:53:14.399Z,9.78
2018-04-22T00:54:14.651Z,9.8
2018-04-22T00:55:14.384Z,9.81
2018-04-22T00:56:14.389Z,9.84
2018-04-22T00:57:14.619Z,9.81
2018-04-22T00:58:14.611Z,9.78
2018-04-22T00:59:14.355Z,9.89
2018-04-22T01:00:14.357Z,9.82
2018-04-22T01:01:14.322Z,9.77
2018-04-22T01:02:14.312Z,9.81
2018-04-22T01:03:14.307Z,9.81
2018-04-22T01:04:14.562Z,9.82
2018-04-22T01:05:14.286Z,9.78
2018-04-22T01:06:14.276Z,9.8
2018-04-22T01:07:14.527Z,9.71
2018-04-22T01:08:13.997Z,9.78
2018-04-22T01:09:14.250Z,9.67
2018-04-22T01:10:14.237Z,9.7
2018-04-22T01:11:14.233Z,9.71
2018-04-22T01:12:14.486Z,9.71
2018-04-22T01:13:14.514Z,9.67
2018-04-22T01:14:14.464Z,9.72
2018-04-22T01:15:14.194Z,9.7
2018-04-22T01:16:14.440Z,9.67
2018-04-22T01:17:14.170Z,9.77
2018-04-22T01:18:14.169Z,9.75
2018-04-22T01:19:14.413Z,9.74
2018-04-22T01:20:14.147Z,9.77
2018-04-22T01:21:13.877Z,9.75
2018-04-22T01:22:14.383Z,9.78
2018-04-22T01:23:14.123Z,9.81
2018-04-22T01:24:14.118Z,9.78
2018-04-22T01:25:14.103Z,9.8
2018-04-22T01:26:14.345Z,9.81
2018-04-22T01:27:14.345Z,9.78
2018-04-22T01:28:14.330Z,9.78
2018-04-22T01:29:14.066Z,9.78
2018-04-22T01:30:14.312Z,9.81
2018-04-22T01:31:14.312Z,9.71
2018-04-22T01:32:14.297Z,9.7
2018-04-22T01:33:14.022Z,9.72
2018-04-22T01:34:14.271Z,9.6
2018-04-22T01:35:14.264Z,9.56
2018-04-22T01:36:14.255Z,9.62
2018-04-22T01:37:14.248Z,9.57
2018-04-22T01:38:13.977Z,9.55
2018-04-22T01:39:13.969Z,9.48
2018-04-22T01:40:13.960Z,9.55
2018-04-22T01:41:14.226Z,9.48
2018-04-22T01:42:14.199Z,9.47
2018-04-22T01:43:13.932Z,9.45
2018-04-22T01:44:13.919Z,9.42
2018-04-22T01:45:13.908Z,9.3
2018-04-22T01:46:13.911Z,9.35
2018-04-22T01:47:14.152Z,9.3
2018-04-22T01:48:13.886Z,9.37
2018-04-22T01:49:14.134Z,9.35
2018-04-22T01:50:14.117Z,9.2
2018-04-22T01:51:14.110Z,9.2
2018-04-22T01:52:14.100Z,9.19
2018-04-22T01:53:13.835Z,9.19
2018-04-22T01:54:14.081Z,9.17
2018-04-22T01:55:14.073Z,9.24
2018-04-22T01:56:13.808Z,9.17
2018-04-22T01:57:14.053Z,9.21
2018-04-22T01:58:14.043Z,9.19
2018-04-22T01:59:13.773Z,9.2
2018-04-22T02:00:13.767Z,9.16
2018-04-22T02:01:14.012Z,9.19
2018-04-22T02:02:14.004Z,9.17
2018-04-22T02:03:13.996Z,9.19
2018-04-22T02:04:13.985Z,9.17
2018-04-22T02:05:13.973Z,9.16
2018-04-22T02:06:13.964Z,9.17
2018-04-22T02:07:13.962Z,9.17
2018-04-22T02:08:13.944Z,9.11
2018-04-22T02:09:13.930Z,9.12
2018-04-22T02:10:13.923Z,9.19
2018-04-22T02:11:13.915Z,9.14
2018-04-22T02:12:13.643Z,9.19
2018-04-22T02:13:13.895Z,9.23
2018-04-22T02:14:13.622Z,9.21
2018-04-22T02:15:13.612Z,9.19
2018-04-22T02:16:13.869Z,9.19
2018-04-22T02:17:13.593Z,9.12
2018-04-22T02:18:13.852Z,9.16
2018-04-22T02:19:13.579Z,9.16
2018-04-22T02:20:13.569Z,9.21
2018-04-22T02:21:13.817Z,9.11
2018-04-22T02:22:13.552Z,9.14
2018-04-22T02:23:13.536Z,9.05
2018-04-22T02:24:13.784Z,9.04
2018-04-22T02:25:13.769Z,9.08
2018-04-22T02:26:13.761Z,9.03
2018-04-22T02:27:13.576Z,9.03
2018-04-22T02:28:13.755Z,9
2018-04-22T02:29:13.743Z,9.04
2018-04-22T02:30:13.209Z,9.05
2018-04-22T02:31:13.460Z,9
2018-04-22T02:32:13.715Z,9.01
2018-04-22T02:33:13.438Z,8.95
2018-04-22T02:34:13.430Z,9.01
2018-04-22T02:35:13.157Z,8.98
2018-04-22T02:36:13.415Z,9.09
2018-04-22T02:37:13.401Z,9.01
2018-04-22T02:38:13.402Z,9.05
2018-04-22T02:39:13.649Z,9.03
2018-04-22T02:40:13.631Z,9.08
2018-04-22T02:41:13.616Z,9.05
2018-04-22T02:42:13.627Z,9
2018-04-22T02:43:13.338Z,9.05
2018-04-22T02:44:13.593Z,9.08
2018-04-22T02:45:13.605Z,9.04
2018-04-22T02:46:13.306Z,9.09
2018-04-22T02:47:13.302Z,9.14
2018-04-22T02:48:13.574Z,9.04
2018-04-22T02:49:13.539Z,9.04
2018-04-22T02:50:13.560Z,9.01
2018-04-22T02:51:13.521Z,9.05
2018-04-22T02:52:13.509Z,9.08
2018-04-22T02:53:13.494Z,9
2018-04-22T02:54:13.484Z,9.01
2018-04-22T02:55:13.217Z,9.09
2018-04-22T02:56:13.465Z,9.09
2018-04-22T02:57:13.450Z,9.01
2018-04-22T02:58:13.447Z,9.09
2018-04-22T02:59:13.172Z,9.03
2018-04-22T03:00:13.445Z,9.01
2018-04-22T03:01:13.162Z,9.01
2018-04-22T03:02:13.152Z,9.05
2018-04-22T03:03:13.133Z,9.03
2018-04-22T03:04:13.386Z,9.08
2018-04-22T03:05:13.111Z,9.08
2018-04-22T03:06:13.376Z,9.08
2018-04-22T03:07:13.351Z,9.03
2018-04-22T03:08:13.087Z,9
2018-04-22T03:09:12.815Z,8.98
2018-04-22T03:10:13.067Z,9.03
2018-04-22T03:11:13.055Z,9.01
2018-04-22T03:12:13.301Z,9.01
2018-04-22T03:13:13.296Z,9.01
2018-04-22T03:14:13.289Z,9
2018-04-22T03:15:13.275Z,9.01
2018-04-22T03:16:13.293Z,9.03
2018-04-22T03:17:13.010Z,9.01
2018-04-22T03:18:12.987Z,9.14
2018-04-22T03:19:12.978Z,9.01
2018-04-22T03:20:13.223Z,9.08
2018-04-22T03:21:13.207Z,9.01
2018-04-22T03:22:13.260Z,9.04
2018-04-22T03:23:13.191Z,9.01
2018-04-22T03:24:12.934Z,9.19
2018-04-22T03:25:13.173Z,9.09
2018-04-22T03:26:12.902Z,9.08
2018-04-22T03:27:12.634Z,9.05
2018-04-22T03:28:13.141Z,9.03
2018-04-22T03:29:13.138Z,9.04
2018-04-22T03:30:12.889Z,9.14
2018-04-22T03:31:12.854Z,9.09
2018-04-22T03:32:13.106Z,9.05
2018-04-22T03:33:13.089Z,9.09
2018-04-22T03:34:12.568Z,9.08
2018-04-22T03:35:12.819Z,9.04
2018-04-22T03:36:13.061Z,9.03
2018-04-22T03:37:13.059Z,8.98
2018-04-22T03:38:13.058Z,9.05
2018-04-22T03:39:13.034Z,9.03
2018-04-22T03:40:13.028Z,9.01
2018-04-22T03:41:12.761Z,8.98
2018-04-22T03:42:13.006Z,9
2018-04-22T03:43:13.005Z,9
2018-04-22T03:44:12.724Z,9.09
2018-04-22T03:45:12.974Z,8.97
2018-04-22T03:46:12.963Z,9.14
2018-04-22T03:47:12.695Z,9.04
2018-04-22T03:48:12.686Z,9.04
2018-04-22T03:49:12.931Z,9.09
2018-04-22T03:50:12.934Z,9.16
2018-04-22T03:51:12.917Z,9.19
2018-04-22T03:52:12.646Z,9.2
2018-04-22T03:53:12.711Z,9.2
2018-04-22T03:54:12.892Z,9.19
2018-04-22T03:55:12.880Z,9.17
2018-04-22T03:56:12.601Z,9.2
2018-04-22T03:57:12.593Z,9.17
2018-04-22T03:58:12.843Z,9.19
2018-04-22T03:59:12.842Z,9.2
2018-04-22T04:00:12.570Z,9.24
2018-04-22T04:01:12.807Z,9.26
2018-04-22T04:02:12.549Z,9.17
2018-04-22T04:03:13.015Z,9.19
2018-04-22T04:04:12.599Z,9.24
2018-04-22T04:05:12.296Z,9.19
2018-04-22T04:06:12.766Z,9.2
2018-04-22T04:07:12.498Z,9.16
2018-04-22T04:08:12.746Z,9.14
2018-04-22T04:09:12.744Z,9.24
2018-04-22T04:10:12.727Z,9.2
2018-04-22T04:11:12.721Z,9.17
2018-04-22T04:12:12.707Z,9.2
2018-04-22T04:13:12.440Z,9.17
2018-04-22T04:14:12.687Z,9.17
2018-04-22T04:15:12.420Z,9.3
2018-04-22T04:16:12.675Z,9.2
2018-04-22T04:17:12.659Z,9.35
2018-04-22T04:18:12.650Z,9.32
2018-04-22T04:19:12.121Z,9.35
2018-04-22T04:20:12.368Z,9.35
2018-04-22T04:21:12.615Z,9.34
2018-04-22T04:22:12.347Z,9.35
2018-04-22T04:23:12.597Z,9.3
2018-04-22T04:24:12.636Z,9.37
2018-04-22T04:25:12.321Z,9.5
2018-04-22T04:26:12.320Z,9.47
2018-04-22T04:27:12.563Z,9.5
2018-04-22T04:28:12.290Z,9.52
2018-04-22T04:29:12.538Z,9.5
2018-04-22T04:30:12.531Z,9.53
2018-04-22T04:31:12.257Z,9.62
2018-04-22T04:32:12.507Z,9.56
2018-04-22T04:33:12.242Z,9.7
2018-04-22T04:34:12.228Z,9.67
2018-04-22T04:35:12.488Z,9.72
2018-04-22T04:36:12.598Z,9.78
2018-04-22T04:37:12.459Z,9.92
2018-04-22T04:38:12.197Z,9.85
2018-04-22T04:39:12.202Z,9.93
2018-04-22T04:40:12.600Z,9.98
2018-04-22T04:41:12.531Z,10.02
2018-04-22T04:42:12.527Z,9.98
2018-04-22T04:43:12.294Z,10.07
2018-04-22T04:44:12.540Z,9.98
2018-04-22T04:45:12.536Z,10.03
2018-04-22T04:46:12.243Z,10.2
2018-04-22T04:47:12.441Z,10.17
2018-04-22T04:48:11.943Z,10.2
2018-04-22T04:49:12.469Z,10.15
2018-04-22T04:50:12.473Z,10.28
2018-04-22T04:51:12.476Z,10.28
2018-04-22T04:52:12.214Z,10.35
2018-04-22T04:53:12.478Z,10.36
2018-04-22T04:54:11.928Z,10.42
2018-04-22T04:55:12.301Z,10.46
2018-04-22T04:56:12.401Z,10.63
2018-04-22T04:57:12.526Z,10.57
2018-04-22T04:58:12.153Z,10.58
2018-04-22T04:59:12.256Z,10.61
2018-04-22T05:00:11.995Z,10.65
2018-04-22T05:01:12.236Z,10.69
2018-04-22T05:02:12.238Z,10.69
2018-04-22T05:03:12.215Z,10.8
2018-04-22T05:04:11.953Z,10.77
2018-04-22T05:05:12.195Z,10.8
2018-04-22T05:06:11.936Z,10.84
2018-04-22T05:07:12.184Z,10.91
2018-04-22T05:08:12.168Z,10.9
2018-04-22T05:09:11.905Z,10.97
2018-04-22T05:10:11.899Z,11.06
2018-04-22T05:11:11.886Z,11.05
2018-04-22T05:12:12.136Z,11.08
2018-04-22T05:13:11.865Z,11.08
2018-04-22T05:14:12.114Z,11.12
2018-04-22T05:15:12.106Z,11.16
2018-04-22T05:16:12.149Z,11.16
2018-04-22T05:17:12.093Z,11.2
2018-04-22T05:18:12.091Z,11.34
2018-04-22T05:19:11.811Z,11.42
2018-04-22T05:20:11.806Z,11.43
2018-04-22T05:21:12.270Z,11.52
2018-04-22T05:22:12.297Z,11.45
2018-04-22T05:23:12.206Z,11.49
2018-04-22T05:24:12.191Z,11.57
2018-04-22T05:25:12.270Z,11.64
2018-04-22T05:26:12.221Z,11.61
2018-04-22T05:27:12.210Z,11.67
2018-04-22T05:28:12.198Z,11.66
2018-04-22T05:29:12.208Z,11.78
2018-04-22T05:30:12.192Z,11.84
2018-04-22T05:31:12.196Z,11.86
2018-04-22T05:32:12.148Z,11.84
2018-04-22T05:33:11.573Z,12
2018-04-22T05:34:11.862Z,12.03
2018-04-22T05:35:11.812Z,12.08
2018-04-22T05:36:11.673Z,12.07
2018-04-22T05:37:11.919Z,12.15
2018-04-22T05:38:11.910Z,12.2
2018-04-22T05:39:11.911Z,12.23
2018-04-22T05:40:11.867Z,12.37
2018-04-22T05:41:11.897Z,12.4
2018-04-22T05:42:11.626Z,12.4
2018-04-22T05:43:11.879Z,12.48
2018-04-22T05:44:11.608Z,12.56
2018-04-22T05:45:11.857Z,12.69
2018-04-22T05:46:11.592Z,12.66
2018-04-22T05:47:11.583Z,12.77
2018-04-22T05:48:11.843Z,12.78
2018-04-22T05:49:11.829Z,12.81
2018-04-22T05:50:11.819Z,12.84
2018-04-22T05:51:12.031Z,12.91
2018-04-22T05:52:11.801Z,12.96
2018-04-22T05:53:11.846Z,12.94
2018-04-22T05:54:11.795Z,13.07
2018-04-22T05:55:11.270Z,13.09
2018-04-22T05:56:11.524Z,13.24
2018-04-22T05:57:11.779Z,13.21
2018-04-22T05:58:11.768Z,13.28
2018-04-22T05:59:11.498Z,13.36
2018-04-22T06:00:11.486Z,13.31
2018-04-22T06:01:11.489Z,13.35
2018-04-22T06:02:11.970Z,13.48
2018-04-22T06:03:11.466Z,13.5
2018-04-22T06:04:11.720Z,13.51
2018-04-22T06:05:11.718Z,13.5
2018-04-22T06:06:11.796Z,13.54
2018-04-22T06:07:11.855Z,13.63
2018-04-22T06:08:11.543Z,13.7
2018-04-22T06:09:11.444Z,13.75
2018-04-22T06:10:11.439Z,13.72
2018-04-22T06:11:11.672Z,13.75
2018-04-22T06:12:11.408Z,13.84
2018-04-22T06:13:11.398Z,13.9
2018-04-22T06:14:11.398Z,13.94
2018-04-22T06:15:11.392Z,14.08
2018-04-22T06:16:11.382Z,14.08
2018-04-22T06:17:11.373Z,14.16
2018-04-22T06:18:11.364Z,14.16
2018-04-22T06:19:11.359Z,14.19
2018-04-22T06:20:11.357Z,14.27
2018-04-22T06:21:11.349Z,14.31
2018-04-22T06:22:11.612Z,14.42
2018-04-22T06:23:11.080Z,14.39
2018-04-22T06:24:11.329Z,14.42
2018-04-22T06:25:11.582Z,14.51
2018-04-22T06:26:11.319Z,14.48
2018-04-22T06:27:11.680Z,14.49
2018-04-22T06:28:11.559Z,14.49
2018-04-22T06:29:11.316Z,14.49
2018-04-22T06:30:11.035Z,14.61
2018-04-22T06:31:11.558Z,14.69
2018-04-22T06:32:11.539Z,14.66
2018-04-22T06:33:11.526Z,14.67
2018-04-22T06:34:11.269Z,14.83
2018-04-22T06:35:11.258Z,14.97
2018-04-22T06:36:11.254Z,14.98
2018-04-22T06:37:11.514Z,15.02
2018-04-22T06:38:11.512Z,15.1
2018-04-22T06:39:11.496Z,15.05
2018-04-22T06:40:11.503Z,15.33
2018-04-22T06:41:11.492Z,15.71
2018-04-22T06:42:11.487Z,16.08
2018-04-22T06:43:11.475Z,16.49
2018-04-22T06:44:11.212Z,16.85
2018-04-22T06:45:11.206Z,17.46
2018-04-22T06:46:11.563Z,18.06
2018-04-22T06:47:11.195Z,18.51
2018-04-22T06:48:11.458Z,18.9
2018-04-22T06:49:11.187Z,19.35
2018-04-22T06:50:11.181Z,19.93
2018-04-22T06:51:11.455Z,20.61
2018-04-22T06:52:11.169Z,21.23
2018-04-22T06:53:11.438Z,21.89
2018-04-22T06:54:11.421Z,22.63
2018-04-22T06:55:11.426Z,23.19
2018-04-22T06:56:11.164Z,23.67
2018-04-22T06:57:11.412Z,24.21
2018-04-22T06:58:11.161Z,24.56
2018-04-22T06:59:11.150Z,24.97
2018-04-22T07:00:11.156Z,25.44
2018-04-22T07:01:11.156Z,25.69
2018-04-22T07:02:11.152Z,26.07
2018-04-22T07:03:11.149Z,26.45
2018-04-22T07:04:11.144Z,26.68
2018-04-22T07:05:11.417Z,26.87
2018-04-22T07:06:11.409Z,27.12
2018-04-22T07:07:11.155Z,27.28
2018-04-22T07:08:11.167Z,27.52
2018-04-22T07:09:11.412Z,27.66
2018-04-22T07:10:10.892Z,27.98
2018-04-22T07:11:11.149Z,28.24
2018-04-22T07:12:11.411Z,28.45
2018-04-22T07:13:11.421Z,28.55
2018-04-22T07:14:11.157Z,28.79
2018-04-22T07:15:11.648Z,28.94
2018-04-22T07:16:10.906Z,29.01
2018-04-22T07:17:11.431Z,29.14
2018-04-22T07:18:11.175Z,29.35
2018-04-22T07:19:11.438Z,29.42
2018-04-22T07:20:11.440Z,29.57
2018-04-22T07:21:11.439Z,29.6
2018-04-22T07:22:11.182Z,29.61
2018-04-22T07:23:11.185Z,29.76
2018-04-22T07:24:11.590Z,29.75
2018-04-22T07:25:11.194Z,29.87
2018-04-22T07:26:11.197Z,30.04
2018-04-22T07:27:11.478Z,30.07
2018-04-22T07:28:11.463Z,30.14
2018-04-22T07:29:11.469Z,30.19
2018-04-22T07:30:11.218Z,30.22
2018-04-22T07:31:11.475Z,30.4
2018-04-22T07:32:11.313Z,30.42
2018-04-22T07:33:10.962Z,30.39
2018-04-22T07:34:11.480Z,30.31
2018-04-22T07:35:11.486Z,30.25
2018-04-22T07:36:11.235Z,30.06
2018-04-22T07:37:10.981Z,29.72
2018-04-22T07:38:11.501Z,29.33
2018-04-22T07:39:11.243Z,28.83
2018-04-22T07:40:11.508Z,28.35
2018-04-22T07:41:10.987Z,27.83
2018-04-22T07:42:11.507Z,27.45
2018-04-22T07:43:11.262Z,27
2018-04-22T07:44:11.252Z,26.67
2018-04-22T07:45:11.258Z,26.17
2018-04-22T07:46:11.003Z,25.56
2018-04-22T07:47:11.527Z,25.23
2018-04-22T07:48:11.524Z,24.74
2018-04-22T07:49:11.271Z,24.32
2018-04-22T07:50:11.528Z,23.99
2018-04-22T07:51:11.270Z,23.77
2018-04-22T07:52:11.531Z,23.47
2018-04-22T07:53:11.539Z,23.32
2018-04-22T07:54:11.534Z,23.03
2018-04-22T07:55:11.540Z,22.73
2018-04-22T07:56:11.552Z,22.66
2018-04-22T07:57:11.280Z,22.45
2018-04-22T07:58:11.548Z,22.31
2018-04-22T07:59:11.288Z,22.12
2018-04-22T08:00:11.297Z,22.04
2018-04-22T08:01:11.546Z,21.96
2018-04-22T08:02:11.563Z,21.96
2018-04-22T08:03:11.294Z,21.96
2018-04-22T08:04:11.293Z,22.02
2018-04-22T08:05:11.554Z,21.94
2018-04-22T08:06:11.302Z,21.9
2018-04-22T08:07:11.105Z,21.9
2018-04-22T08:08:11.320Z,22
2018-04-22T08:09:11.725Z,22.04
2018-04-22T08:10:11.736Z,22
2018-04-22T08:11:11.455Z,22
2018-04-22T08:12:11.657Z,21.92
2018-04-22T08:13:11.300Z,21.96
2018-04-22T08:14:11.555Z,21.92
2018-04-22T08:15:11.558Z,21.99
2018-04-22T08:16:11.568Z,22.02
2018-04-22T08:17:11.304Z,21.93
2018-04-22T08:18:11.303Z,22.07
2018-04-22T08:19:11.569Z,22.08
2018-04-22T08:20:11.306Z,22.07
2018-04-22T08:21:11.566Z,22.12
2018-04-22T08:22:11.318Z,21.93
2018-04-22T08:23:11.307Z,21.96
2018-04-22T08:24:11.308Z,22.05
2018-04-22T08:25:11.308Z,21.97
2018-04-22T08:26:11.051Z,21.94
2018-04-22T08:27:11.310Z,21.96
2018-04-22T08:28:11.572Z,21.94
2018-04-22T08:29:11.309Z,22.07
2018-04-22T08:30:11.579Z,21.96
2018-04-22T08:31:11.319Z,22.04
2018-04-22T08:32:11.620Z,21.94
2018-04-22T08:33:11.569Z,22.04
2018-04-22T08:34:11.319Z,22.04
2018-04-22T08:35:11.320Z,22
2018-04-22T08:36:11.320Z,22.02
2018-04-22T08:37:11.320Z,21.99
2018-04-22T08:38:11.579Z,22.02
2018-04-22T08:39:11.321Z,21.97
2018-04-22T08:40:11.582Z,22.05
2018-04-22T08:41:11.056Z,22.08
2018-04-22T08:42:11.574Z,22.16
2018-04-22T08:43:11.574Z,22.27
2018-04-22T08:44:11.321Z,22.26
2018-04-22T08:45:11.579Z,22.29
2018-04-22T08:46:11.060Z,22.39
2018-04-22T08:47:11.576Z,22.42
2018-04-22T08:48:11.319Z,22.33
2018-04-22T08:49:11.319Z,22.27
2018-04-22T08:50:11.326Z,22.38
2018-04-22T08:51:11.588Z,22.39
2018-04-22T08:52:11.582Z,22.48
2018-04-22T08:53:11.575Z,22.57
2018-04-22T08:54:11.578Z,22.46
2018-04-22T08:55:11.581Z,22.51
2018-04-22T08:56:11.581Z,22.49
2018-04-22T08:57:11.323Z,22.51
2018-04-22T08:58:11.319Z,22.48
2018-04-22T08:59:11.329Z,22.39
2018-04-22T09:00:11.591Z,22.39
2018-04-22T09:01:11.328Z,22.38
2018-04-22T09:02:11.074Z,22.41
2018-04-22T09:03:11.593Z,22.39
2018-04-22T09:04:11.584Z,22.48
2018-04-22T09:05:11.327Z,22.52
2018-04-22T09:06:11.605Z,22.6
2018-04-22T09:07:11.327Z,22.71
2018-04-22T09:08:11.585Z,22.71
2018-04-22T09:09:11.332Z,22.66
2018-04-22T09:10:11.585Z,22.79
2018-04-22T09:11:11.326Z,22.85
2018-04-22T09:12:11.342Z,22.84
2018-04-22T09:13:11.587Z,22.78
2018-04-22T09:14:11.328Z,22.91
2018-04-22T09:15:11.589Z,22.85
2018-04-22T09:16:11.331Z,22.88
2018-04-22T09:17:11.327Z,22.92
2018-04-22T09:18:11.075Z,23
2018-04-22T09:19:11.593Z,23.03
2018-04-22T09:20:11.595Z,23.07
2018-04-22T09:21:11.587Z,23.09
2018-04-22T09:22:11.330Z,23.06
2018-04-22T09:23:11.337Z,23.06
2018-04-22T09:24:11.593Z,23.07
2018-04-22T09:25:11.337Z,23.19
2018-04-22T09:26:11.596Z,23.15
2018-04-22T09:27:11.594Z,23.07
2018-04-22T09:28:11.593Z,23.14
2018-04-22T09:29:11.613Z,23.15
2018-04-22T09:30:11.335Z,23.09
2018-04-22T09:31:11.343Z,23.01
2018-04-22T09:32:11.357Z,23.1
2018-04-22T09:33:11.137Z,23.14
2018-04-22T09:34:11.341Z,23.04
2018-04-22T09:35:11.089Z,23.03
2018-04-22T09:36:11.600Z,22.99
2018-04-22T09:37:11.609Z,23.14
2018-04-22T09:38:11.819Z,23.14
2018-04-22T09:39:11.600Z,23.18
2018-04-22T09:40:11.613Z,23.24
2018-04-22T09:41:11.344Z,23.24
2018-04-22T09:42:11.343Z,23.19
2018-04-22T09:43:11.697Z,23.26
2018-04-22T09:44:11.608Z,23.26
2018-04-22T09:45:11.624Z,23.25
2018-04-22T09:46:11.608Z,23.28
2018-04-22T09:47:11.613Z,23.28
2018-04-22T09:48:11.350Z,23.32
2018-04-22T09:49:11.095Z,23.42
2018-04-22T09:50:11.614Z,23.42
2018-04-22T09:51:11.355Z,23.48
2018-04-22T09:52:11.614Z,23.4
2018-04-22T09:53:11.613Z,23.32
2018-04-22T09:54:11.627Z,23.37
2018-04-22T09:55:11.628Z,23.35
2018-04-22T09:56:11.615Z,23.35
2018-04-22T09:57:11.357Z,23.32
2018-04-22T09:58:11.612Z,23.26
2018-04-22T09:59:11.357Z,23.35
2018-04-22T10:00:11.349Z,23.38
2018-04-22T10:01:11.617Z,23.34
2018-04-22T10:02:11.620Z,23.35
2018-04-22T10:03:11.108Z,23.35
2018-04-22T10:04:11.626Z,23.53
2018-04-22T10:05:11.625Z,23.5
2018-04-22T10:06:11.630Z,23.48
2018-04-22T10:07:11.628Z,23.62
2018-04-22T10:08:11.629Z,23.62
2018-04-22T10:09:11.368Z,23.7
2018-04-22T10:10:11.637Z,23.67
2018-04-22T10:11:11.371Z,23.72
2018-04-22T10:12:11.630Z,23.72
2018-04-22T10:13:11.661Z,23.79
2018-04-22T10:14:11.618Z,23.71
2018-04-22T10:15:11.378Z,23.77
2018-04-22T10:16:11.630Z,23.74
2018-04-22T10:17:11.629Z,23.66
2018-04-22T10:18:11.635Z,23.52
2018-04-22T10:19:11.377Z,23.52
2018-04-22T10:20:11.376Z,23.56
2018-04-22T10:21:11.641Z,23.52
2018-04-22T10:22:11.641Z,23.56
2018-04-22T10:23:11.638Z,23.59
2018-04-22T10:24:11.126Z,23.55
2018-04-22T10:25:11.653Z,23.53
2018-04-22T10:26:11.643Z,23.57
2018-04-22T10:27:11.644Z,23.6
2018-04-22T10:28:11.389Z,23.67
2018-04-22T10:29:11.649Z,23.5
2018-04-22T10:30:11.645Z,23.5
2018-04-22T10:31:11.392Z,23.56
2018-04-22T10:32:11.656Z,23.5
2018-04-22T10:33:11.649Z,23.52
2018-04-22T10:34:11.391Z,23.52
2018-04-22T10:35:11.659Z,23.42
2018-04-22T10:36:11.499Z,23.44
2018-04-22T10:37:11.655Z,23.52
2018-04-22T10:38:11.672Z,23.5
2018-04-22T10:39:11.672Z,23.5
2018-04-22T10:40:11.834Z,23.45
2018-04-22T10:41:11.659Z,23.45
2018-04-22T10:42:11.402Z,23.44
2018-04-22T10:43:11.662Z,23.55
2018-04-22T10:44:11.664Z,23.59
2018-04-22T10:45:11.669Z,23.45
2018-04-22T10:46:11.404Z,23.44
2018-04-22T10:47:11.406Z,23.53
2018-04-22T10:48:11.413Z,23.53
2018-04-22T10:49:11.412Z,23.52
2018-04-22T10:50:11.409Z,23.48
2018-04-22T10:51:11.153Z,23.47
2018-04-22T10:52:11.675Z,23.44
2018-04-22T10:53:11.673Z,23.5
2018-04-22T10:54:11.671Z,23.57
2018-04-22T10:55:11.482Z,23.55
2018-04-22T10:56:11.674Z,23.62
2018-04-22T10:57:11.682Z,23.82
2018-04-22T10:58:11.856Z,23.72
2018-04-22T10:59:11.765Z,23.79
2018-04-22T11:00:11.675Z,23.75
2018-04-22T11:01:11.319Z,23.85
2018-04-22T11:02:11.594Z,23.87
2018-04-22T11:03:11.902Z,23.89
2018-04-22T11:04:11.670Z,23.89
2018-04-22T11:05:12.074Z,23.93
2018-04-22T11:06:11.491Z,23.93
2018-04-22T11:07:11.438Z,23.9
2018-04-22T11:08:11.704Z,23.9
2018-04-22T11:09:11.704Z,23.9
2018-04-22T11:10:11.698Z,23.94
2018-04-22T11:11:11.703Z,23.97
2018-04-22T11:12:11.693Z,23.99
2018-04-22T11:13:11.435Z,24.12
2018-04-22T11:14:11.698Z,24.17
2018-04-22T11:15:11.700Z,24.19
2018-04-22T11:16:11.180Z,24.22
2018-04-22T11:17:11.445Z,24.17
2018-04-22T11:18:11.443Z,24.15
2018-04-22T11:19:11.388Z,24.14
2018-04-22T11:20:11.704Z,24.15
2018-04-22T11:21:11.765Z,24.12
2018-04-22T11:22:11.796Z,24.17
2018-04-22T11:23:11.449Z,24.17
2018-04-22T11:24:11.718Z,24.12
2018-04-22T11:25:11.195Z,24.18
2018-04-22T11:26:11.734Z,24.17
2018-04-22T11:27:11.463Z,23.99
2018-04-22T11:28:11.457Z,24
2018-04-22T11:29:11.726Z,24.07
2018-04-22T11:30:11.459Z,24.07
2018-04-22T11:31:11.460Z,24.04
2018-04-22T11:32:11.479Z,23.99
2018-04-22T11:33:11.553Z,23.96
2018-04-22T11:34:11.733Z,24
2018-04-22T11:35:11.725Z,23.99
2018-04-22T11:36:11.466Z,23.9
2018-04-22T11:37:11.474Z,23.92
2018-04-22T11:38:11.726Z,23.82
2018-04-22T11:39:11.473Z,23.85
2018-04-22T11:40:11.731Z,23.85
2018-04-22T11:41:11.479Z,23.89
2018-04-22T11:42:11.763Z,23.78
2018-04-22T11:43:11.758Z,23.72
2018-04-22T11:44:11.759Z,23.56
2018-04-22T11:45:11.485Z,23.52
2018-04-22T11:46:11.232Z,23.47
2018-04-22T11:47:11.490Z,23.52
2018-04-22T11:48:11.746Z,23.59
2018-04-22T11:49:11.749Z,23.6
2018-04-22T11:50:11.749Z,23.56
2018-04-22T11:51:11.487Z,23.67
2018-04-22T11:52:11.495Z,23.66
2018-04-22T11:53:11.753Z,23.72
2018-04-22T11:54:11.499Z,23.79
2018-04-22T11:55:11.755Z,23.77
2018-04-22T11:56:11.759Z,23.71
2018-04-22T11:57:11.768Z,23.64
2018-04-22T11:58:11.762Z,23.66
2018-04-22T11:59:11.761Z,23.78
2018-04-22T12:00:11.950Z,23.72
2018-04-22T12:01:11.771Z,23.75
2018-04-22T12:02:11.508Z,23.89
2018-04-22T12:03:11.507Z,23.96
2018-04-22T12:04:11.508Z,23.99
2018-04-22T12:05:11.533Z,24.04
2018-04-22T12:06:11.515Z,23.99
2018-04-22T12:07:11.509Z,24.14
2018-04-22T12:08:11.773Z,24.18
2018-04-22T12:09:11.516Z,24.12
2018-04-22T12:10:11.773Z,24.12
2018-04-22T12:11:11.519Z,24.12
2018-04-22T12:12:11.519Z,24.17
2018-04-22T12:13:11.524Z,24.18
2018-04-22T12:14:11.796Z,24.17
2018-04-22T12:15:11.781Z,24.12
2018-04-22T12:16:11.782Z,23.99
2018-04-22T12:17:11.796Z,23.99
2018-04-22T12:18:11.931Z,23.85
2018-04-22T12:19:11.532Z,23.79
2018-04-22T12:20:11.788Z,23.74
2018-04-22T12:21:11.532Z,23.74
2018-04-22T12:22:11.865Z,23.77
2018-04-22T12:23:11.535Z,23.87
2018-04-22T12:24:11.796Z,23.81
2018-04-22T12:25:11.547Z,23.85
2018-04-22T12:26:11.540Z,23.96
2018-04-22T12:27:11.547Z,23.93
2018-04-22T12:28:11.543Z,23.92
2018-04-22T12:29:11.548Z,23.85
2018-04-22T12:30:11.820Z,23.82
2018-04-22T12:31:11.553Z,23.9
2018-04-22T12:32:11.843Z,23.85
2018-04-22T12:33:11.810Z,23.87
2018-04-22T12:34:11.810Z,23.94
2018-04-22T12:35:11.819Z,23.92
2018-04-22T12:36:11.557Z,23.9
2018-04-22T12:37:11.815Z,23.93
2018-04-22T12:38:11.310Z,23.96
2018-04-22T12:39:11.823Z,23.89
2018-04-22T12:40:11.560Z,23.85
2018-04-22T12:41:11.567Z,23.93
2018-04-22T12:42:11.828Z,23.9
2018-04-22T12:43:11.827Z,23.99
2018-04-22T12:44:11.567Z,24.02
2018-04-22T12:45:11.748Z,23.99
2018-04-22T12:46:11.859Z,24
2018-04-22T12:47:11.842Z,23.94
2018-04-22T12:48:11.831Z,23.92
2018-04-22T12:49:11.321Z,23.87
2018-04-22T12:50:11.833Z,23.87
2018-04-22T12:51:11.583Z,23.9
2018-04-22T12:52:11.581Z,23.9
2018-04-22T12:53:11.838Z,23.87
2018-04-22T12:54:11.588Z,23.99
2018-04-22T12:55:11.588Z,23.97
2018-04-22T12:56:11.588Z,24
2018-04-22T12:57:11.593Z,24
2018-04-22T12:58:11.850Z,23.92
2018-04-22T12:59:11.613Z,23.89
2018-04-22T13:00:11.599Z,23.94
2018-04-22T13:01:11.853Z,23.74
2018-04-22T13:02:11.894Z,23.62
2018-04-22T13:03:11.865Z,23.52
2018-04-22T13:04:11.869Z,23.55
2018-04-22T13:05:11.906Z,23.45